createdAt,value
2018-05-02T08:22:13.676Z,50.80
2018-05-02T08:54:42.635Z,46.80
2018-05-02T09:42:50.056Z,42.20
2018-05-02T09:45:18.981Z,43.60
2018-05-02T09:47:47.088Z,43.60
2018-05-02T09:50:15.187Z,44.10
2018-05-02T09:52:43.407Z,44.20
2018-05-02T09:55:12.443Z,43.10
2018-05-02T09:57:40.581Z,43.10
2018-05-02T10:00:08.696Z,42.90
2018-05-02T10:02:36.847Z,43.20
2018-05-02T10:05:04.944Z,42.20
2018-05-02T10:07:33.061Z,42.30
2018-05-02T10:10:01.983Z,40.50
2018-05-02T10:12:30.381Z,40.40
2018-05-02T10:14:58.459Z,42.10
2018-05-02T10:17:26.566Z,42.90
2018-05-02T10:19:54.779Z,43.40
2018-05-02T10:22:23.665Z,42.90
2018-05-02T10:24:52.524Z,41.80
2018-05-02T10:27:20.644Z,42.30
2018-05-02T10:29:48.771Z,41.50
2018-05-02T10:32:16.895Z,40.60
2018-05-02T10:34:45.757Z,42.30
2018-05-02T10:37:13.907Z,42.20
2018-05-02T10:39:42.045Z,42.70
2018-05-02T10:42:10.932Z,42.90
2018-05-02T10:44:39.092Z,42.90
2018-05-02T10:47:07.200Z,43.10
2018-05-02T10:49:35.329Z,43.20
2018-05-02T10:52:03.478Z,43.10
2018-05-02T10:54:31.588Z,42.90
2018-05-02T10:57:00.500Z,43.00
2018-05-02T10:59:28.792Z,43.00
2018-05-02T11:01:56.894Z,43.20
2018-05-02T11:04:25.008Z,42.80
2018-05-02T11:06:53.127Z,41.00
2018-05-02T11:09:22.016Z,41.90
2018-05-02T11:11:50.900Z,40.90
2018-05-02T11:14:19.001Z,40.90
2018-05-02T11:16:47.869Z,41.90
2018-05-02T11:19:15.986Z,41.80
2018-05-02T11:21:44.113Z,43.00
2018-05-02T11:24:12.380Z,43.50
2018-05-02T11:26:40.495Z,43.10
2018-05-02T11:29:09.512Z,42.00
2018-05-02T11:31:55.078Z,42.00
2018-05-02T11:34:23.311Z,42.20
2018-05-02T11:36:51.417Z,43.10
2018-05-02T11:39:20.822Z,42.20
2018-05-02T11:41:48.927Z,42.10
2018-05-02T11:44:17.120Z,43.50
2018-05-02T11:46:46.481Z,44.50
2018-05-02T11:49:14.580Z,43.80
2018-05-02T11:51:42.666Z,44.00
2018-05-02T11:54:10.835Z,42.90
2018-05-02T11:56:39.004Z,43.10
2018-05-02T11:59:07.896Z,42.40
2018-05-02T12:01:36.570Z,42.30
2018-05-02T12:04:04.695Z,42.60
2018-05-02T12:06:32.795Z,43.10
2018-05-02T12:09:00.920Z,43.50
2018-05-02T12:11:29.809Z,42.10
2018-05-02T12:13:57.907Z,42.10
2018-05-02T12:16:26.070Z,43.10
2018-05-02T12:18:54.944Z,43.00
2018-05-02T12:21:23.072Z,42.90
2018-05-02T12:23:51.184Z,43.00
2018-05-02T12:26:19.319Z,41.90
2018-05-02T12:28:47.413Z,42.40
2018-05-02T12:31:15.557Z,42.20
2018-05-02T12:33:44.417Z,42.50
2018-05-02T12:36:12.566Z,42.50
2018-05-02T12:38:41.454Z,40.40
2018-05-02T12:41:09.937Z,40.40
2018-05-02T12:43:38.904Z,39.50
2018-05-02T12:46:07.107Z,39.40
2018-05-02T12:48:35.237Z,37.20
2018-05-02T12:51:03.346Z,36.90
2018-05-02T12:53:31.495Z,38.70
2018-05-02T12:56:00.403Z,41.10
2018-05-02T12:58:28.604Z,41.10
2018-05-02T13:00:56.763Z,41.50
2018-05-02T13:03:25.623Z,41.70
2018-05-02T13:05:53.749Z,41.70
2018-05-02T13:08:21.880Z,40.70
2018-05-02T13:10:50.010Z,38.80
2018-05-02T13:13:18.272Z,39.90
2018-05-02T13:15:46.365Z,41.10
2018-05-02T13:18:14.457Z,41.30
2018-05-02T13:20:42.583Z,39.80
2018-05-02T13:23:11.475Z,39.20
2018-05-02T13:25:39.624Z,39.20
2018-05-02T13:28:07.803Z,40.20
2018-05-02T13:30:35.927Z,40.10
2018-05-02T13:33:04.110Z,40.20
2018-05-02T13:35:32.934Z,40.20
2018-05-02T13:38:01.056Z,40.20
2018-05-02T13:40:29.940Z,41.00
2018-05-02T13:42:58.083Z,41.00
2018-05-02T13:45:26.168Z,41.10
2018-05-02T13:47:54.268Z,41.00
2018-05-02T13:50:22.387Z,40.30
2018-05-02T13:52:51.396Z,40.10
2018-05-02T13:55:19.507Z,40.50
2018-05-02T13:57:47.656Z,40.50
2018-05-02T14:00:15.774Z,40.10
2018-05-02T14:02:43.896Z,38.30
2018-05-02T14:05:12.026Z,37.50
2018-05-02T14:07:40.128Z,38.00
2018-05-02T14:10:08.248Z,38.20
2018-05-02T14:12:36.434Z,39.10
2018-05-02T14:15:04.585Z,38.70
2018-05-02T14:17:32.692Z,39.10
2018-05-02T14:20:00.807Z,39.60
2018-05-02T14:22:29.676Z,40.20
2018-05-02T14:24:57.883Z,39.50
2018-05-02T14:27:26.768Z,36.90
2018-05-02T14:29:55.678Z,37.70
2018-05-02T14:32:24.568Z,37.80
2018-05-02T14:34:52.725Z,37.80
2018-05-02T14:37:20.886Z,37.50
2018-05-02T14:39:49.176Z,38.00
2018-05-02T14:42:17.338Z,37.30
2018-05-02T14:44:45.617Z,36.50
2018-05-02T14:47:13.800Z,36.40
2018-05-02T14:49:41.948Z,36.90
2018-05-02T14:52:10.150Z,36.80
2018-05-02T14:54:38.275Z,36.30
2018-05-02T14:57:06.479Z,35.00
2018-05-02T14:59:34.581Z,33.40
2018-05-02T15:02:08.719Z,34.60
2018-05-02T15:04:36.845Z,35.50
2018-05-02T15:07:04.976Z,37.10
2018-05-02T15:09:33.160Z,37.40
2018-05-02T15:12:01.306Z,37.00
2018-05-02T15:14:29.471Z,34.60
2018-05-02T15:16:57.640Z,32.60
2018-05-02T15:19:27.089Z,33.40
2018-05-02T15:21:55.197Z,35.10
2018-05-02T15:24:24.064Z,36.00
2018-05-02T15:26:52.311Z,35.90
2018-05-02T15:29:20.425Z,35.60
2018-05-02T15:31:48.529Z,36.40
2018-05-02T15:34:17.412Z,36.30
2018-05-02T15:36:45.576Z,36.30
2018-05-02T15:39:13.699Z,36.60
2018-05-02T15:41:41.808Z,36.20
2018-05-02T15:44:09.985Z,35.70
2018-05-02T15:46:38.096Z,36.10
2018-05-02T15:49:06.978Z,36.70
2018-05-02T15:51:35.110Z,36.70
2018-05-02T15:54:03.208Z,36.80
2018-05-02T15:56:31.323Z,37.60
2018-05-02T15:58:59.459Z,37.70
2018-05-02T16:01:27.629Z,37.50
2018-05-02T16:03:55.769Z,36.70
2018-05-02T16:06:23.833Z,36.40
2018-05-02T16:08:52.739Z,38.90
2018-05-02T16:11:21.612Z,39.30
2018-05-02T16:13:49.713Z,39.30
2018-05-02T16:16:17.824Z,39.90
2018-05-02T16:18:45.929Z,39.30
2018-05-02T16:21:14.012Z,39.60
2018-05-02T16:23:42.124Z,37.70
2018-05-02T16:26:10.214Z,38.40
2018-05-02T16:28:38.445Z,38.50
2018-05-02T16:31:06.701Z,39.50
2018-05-02T16:33:34.908Z,39.70
2018-05-02T16:36:03.010Z,40.50
2018-05-02T16:38:31.168Z,40.90
2018-05-02T16:40:59.317Z,40.60
2018-05-02T16:43:27.561Z,40.40
2018-05-02T16:45:55.739Z,40.20
2018-05-02T16:48:24.028Z,40.70
2018-05-02T16:50:52.136Z,41.00
2018-05-02T16:53:20.234Z,40.90
2018-05-02T16:55:48.360Z,40.70
2018-05-02T16:58:17.243Z,40.50
2018-05-02T17:00:45.348Z,40.50
2018-05-02T17:03:13.455Z,40.80
2018-05-02T17:05:41.556Z,40.30
2018-05-02T17:08:09.863Z,39.00
2018-05-02T17:10:37.959Z,38.70
2018-05-02T17:13:06.059Z,40.20
2018-05-02T17:15:34.940Z,38.70
2018-05-02T17:18:03.080Z,38.70
2018-05-02T17:20:31.188Z,37.70
2018-05-02T17:22:59.292Z,37.50
2018-05-02T17:25:27.408Z,37.50
2018-05-02T17:27:55.517Z,38.00
2018-05-02T17:30:23.629Z,38.30
2018-05-02T17:32:51.865Z,37.40
2018-05-02T17:35:19.951Z,36.80
2018-05-02T17:37:48.063Z,37.90
2018-05-02T17:40:17.941Z,40.80
2018-05-02T17:42:46.066Z,40.80
2018-05-02T17:45:14.935Z,41.80
2018-05-02T17:47:43.050Z,41.70
2018-05-02T17:50:11.181Z,42.00
2018-05-02T17:52:39.353Z,41.70
2018-05-02T17:55:08.255Z,41.30
2018-05-02T17:57:43.845Z,41.10
2018-05-02T18:00:12.019Z,40.60
2018-05-02T18:02:40.259Z,40.50
2018-05-02T18:05:08.583Z,39.60
2018-05-02T18:07:37.453Z,41.90
2018-05-02T18:10:06.468Z,41.90
2018-05-02T18:12:36.431Z,42.80
2018-05-02T18:15:04.565Z,42.60
2018-05-02T18:17:34.024Z,43.00
2018-05-02T18:20:02.986Z,43.40
2018-05-02T18:22:33.032Z,43.40
2018-05-02T18:25:02.001Z,43.30
2018-05-02T18:27:30.173Z,43.50
2018-05-02T18:29:59.252Z,43.60
2018-05-02T18:32:28.152Z,43.10
2018-05-02T18:34:57.083Z,42.90
2018-05-02T18:37:25.230Z,42.90
2018-05-02T18:39:54.119Z,42.70
2018-05-02T18:42:22.312Z,42.70
2018-05-02T18:44:50.475Z,43.10
2018-05-02T18:47:19.348Z,43.30
2018-05-02T18:49:47.488Z,43.30
2018-05-02T18:52:15.584Z,43.10
2018-05-02T18:54:43.684Z,43.40
2018-05-02T18:57:11.785Z,43.00
2018-05-02T18:59:39.893Z,43.70
2018-05-02T19:02:08.105Z,43.70
2018-05-02T19:04:36.212Z,43.80
2018-05-02T19:07:05.068Z,44.00
2018-05-02T19:09:33.873Z,44.00
2018-05-02T19:12:02.054Z,44.00
2018-05-02T19:14:30.984Z,44.20
2018-05-02T19:16:59.168Z,44.10
2018-05-02T19:19:33.003Z,44.20
2018-05-02T19:22:01.123Z,44.30
2018-05-02T19:24:35.663Z,44.40
2018-05-02T19:27:04.911Z,44.50
2018-05-02T19:29:33.100Z,44.50
2018-05-02T19:32:07.479Z,44.60
2018-05-02T19:34:35.595Z,44.60
2018-05-02T19:37:04.466Z,44.90
2018-05-02T19:39:39.360Z,44.80
2018-05-02T19:42:13.286Z,45.00
2018-05-02T19:44:42.171Z,45.10
2018-05-02T19:47:11.065Z,45.20
2018-05-02T19:49:39.172Z,45.20
2018-05-02T19:52:12.963Z,45.30
2018-05-02T19:54:41.089Z,45.40
2018-05-02T19:57:09.237Z,45.50
2018-05-02T19:59:38.055Z,45.80
2018-05-02T20:02:11.952Z,45.80
2018-05-02T20:04:40.052Z,45.90
2018-05-02T20:07:23.060Z,46.00
2018-05-02T20:09:57.535Z,46.20
2018-05-02T20:12:31.933Z,46.30
2018-05-02T20:15:00.801Z,46.60
2018-05-02T20:17:29.021Z,46.60
2018-05-02T20:19:57.120Z,46.70
2018-05-02T20:22:26.055Z,46.90
2018-05-02T20:24:54.303Z,46.90
2018-05-02T20:27:23.222Z,47.10
2018-05-02T20:29:51.377Z,47.10
2018-05-02T20:32:20.811Z,47.40
2018-05-02T20:34:48.926Z,47.30
2018-05-02T20:37:17.049Z,47.50
2018-05-02T20:39:45.903Z,47.70
2018-05-02T20:42:14.009Z,47.60
2018-05-02T20:44:42.880Z,47.90
2018-05-02T20:47:11.013Z,47.90
2018-05-02T20:49:39.126Z,47.90
2018-05-02T20:52:07.259Z,48.00
2018-05-02T20:54:35.518Z,48.20
2018-05-02T20:57:03.635Z,48.20
2018-05-02T20:59:31.773Z,48.30
2018-05-02T21:02:00.643Z,48.30
2018-05-02T21:04:29.598Z,48.30
2018-05-02T21:06:57.720Z,48.30
2018-05-02T21:09:25.999Z,48.00
2018-05-02T21:11:54.121Z,48.10
2018-05-02T21:14:22.252Z,47.90
2018-05-02T21:16:50.327Z,47.80
2018-05-02T21:19:18.420Z,48.00
2018-05-02T21:21:47.381Z,48.30
2018-05-02T21:24:15.504Z,48.30
2018-05-02T21:26:44.365Z,48.50
2018-05-02T21:29:12.488Z,49.10
2018-05-02T21:31:40.635Z,48.50
2018-05-02T21:34:09.532Z,48.60
2018-05-02T21:36:38.427Z,48.50
2018-05-02T21:39:07.312Z,48.70
2018-05-02T21:41:35.462Z,48.60
2018-05-02T21:44:03.583Z,48.80
2018-05-02T21:46:32.499Z,48.80
2018-05-02T21:49:00.626Z,48.80
2018-05-02T21:51:28.743Z,48.80
2018-05-02T21:53:56.868Z,48.80
2018-05-02T21:56:25.490Z,49.10
2018-05-02T21:58:54.356Z,49.20
2018-05-02T22:01:22.474Z,49.20
2018-05-02T22:03:51.581Z,49.20
2018-05-02T22:06:19.707Z,49.10
2018-05-02T22:08:47.828Z,49.30
2018-05-02T22:11:16.748Z,49.50
2018-05-02T22:13:45.625Z,49.40
2018-05-02T22:16:14.096Z,49.30
2018-05-02T22:18:42.989Z,49.30
2018-05-02T22:21:11.099Z,49.20
2018-05-02T22:23:39.254Z,49.40
2018-05-02T22:26:07.371Z,49.40
2018-05-02T22:28:35.500Z,49.40
2018-05-02T22:31:04.423Z,49.30
2018-05-02T22:33:33.297Z,49.40
2018-05-02T22:36:01.474Z,49.40
2018-05-02T22:38:29.600Z,49.50
2018-05-02T22:40:57.732Z,49.50
2018-05-02T22:43:25.887Z,49.60
2018-05-02T22:45:54.772Z,50.20
2018-05-02T22:48:22.859Z,49.50
2018-05-02T22:50:51.772Z,49.60
2018-05-02T22:53:19.909Z,49.40
2018-05-02T22:55:48.068Z,49.60
2018-05-02T22:58:16.250Z,49.70
2018-05-02T23:00:44.405Z,49.80
2018-05-02T23:03:12.537Z,50.00
2018-05-02T23:05:40.695Z,49.90
2018-05-02T23:08:08.850Z,50.00
2018-05-02T23:10:37.109Z,50.10
2018-05-02T23:13:05.196Z,50.20
2018-05-02T23:15:34.065Z,50.30
2018-05-02T23:18:02.962Z,50.30
2018-05-02T23:20:31.059Z,50.30
2018-05-02T23:22:59.173Z,50.40
2018-05-02T23:25:27.319Z,50.40
2018-05-02T23:27:55.464Z,50.50
2018-05-02T23:30:24.405Z,50.70
2018-05-02T23:32:53.212Z,51.10
2018-05-02T23:35:21.323Z,50.70
2018-05-02T23:37:50.253Z,50.90
2018-05-02T23:40:18.412Z,50.90
2018-05-02T23:42:46.561Z,51.00
2018-05-02T23:45:14.691Z,51.00
2018-05-02T23:47:42.803Z,51.00
2018-05-02T23:50:11.737Z,51.10
2018-05-02T23:52:39.885Z,51.00
2018-05-02T23:55:08.012Z,51.10
2018-05-02T23:57:36.136Z,51.10
